Time;durP1;ratioP1;P1;durP2;ratioP2;P2;SDS_P1;SDS_P2;PMS_P1;PMS_P2;Temp;Humidity;BMP_temperature;BMP_pressure;BME280_temperature;BME280_humidity;BME280_pressure;Samples;Min_cycle;Max_cycle;Signal;HPM_P1;HPM_P2
2023/01/13 00:01:13;;;;;;;25.92;4.88;;;8.80;99.90;;;;;;4972196;28;20049;-83
2023/01/13 00:03:39;;;;;;;23.25;5.43;;;8.70;99.90;;;;;;4989479;28;20050;-83
2023/01/13 00:06:06;;;;;;;23.40;4.28;;;8.70;99.90;;;;;;4972210;28;20391;-83
2023/01/13 00:08:32;;;;;;;23.30;5.38;;;8.60;99.90;;;;;;4969625;28;20488;-83
2023/01/13 00:10:58;;;;;;;25.55;5.15;;;8.60;99.90;;;;;;4982229;28;20039;-83
2023/01/13 00:13:27;;;;;;;27.80;5.05;;;8.60;99.90;;;;;;5008642;28;20180;-83
2023/01/13 00:16:04;;;;;;;25.05;4.70;;;8.50;99.90;;;;;;4970999;28;20375;-83
2023/01/13 00:18:30;;;;;;;21.50;4.75;;;8.50;99.90;;;;;;4970574;28;20388;-83
2023/01/13 00:21:00;;;;;;;24.05;5.30;;;8.40;99.90;;;;;;4970860;28;20377;-83
2023/01/13 00:23:27;;;;;;;27.65;5.75;;;8.40;99.90;;;;;;4977116;28;20039;-83
2023/01/13 00:26:02;;;;;;;27.90;5.57;;;8.40;99.90;;;;;;4986672;28;20092;-83
2023/01/13 00:28:28;;;;;;;28.80;5.70;;;8.40;99.90;;;;;;4996151;28;20032;-83
2023/01/13 00:30:57;;;;;;;31.70;5.43;;;8.40;99.90;;;;;;4981560;28;20038;-83
2023/01/13 00:33:23;;;;;;;25.00;4.93;;;8.40;99.90;;;;;;4976747;28;20043;-82
2023/01/13 00:35:59;;;;;;;28.60;5.47;;;8.40;99.90;;;;;;4992214;28;20169;-83
2023/01/13 00:38:25;;;;;;;30.25;6.65;;;8.30;99.90;;;;;;4973551;28;20125;-82
2023/01/13 00:41:02;;;;;;;36.15;6.20;;;8.40;99.90;;;;;;4986149;28;20632;-82
2023/01/13 00:43:31;;;;;;;28.75;5.15;;;8.40;99.90;;;;;;4973510;28;20125;-83
2023/01/13 00:45:57;;;;;;;32.60;6.05;;;8.40;99.90;;;;;;5005117;28;20048;-83
2023/01/13 00:48:24;;;;;;;25.92;5.45;;;8.40;99.90;;;;;;4999362;28;20036;-83
2023/01/13 00:51:04;;;;;;;37.50;6.15;;;8.30;99.90;;;;;;4974678;28;20120;-83
2023/01/13 00:53:34;;;;;;;28.02;6.15;;;8.30;99.90;;;;;;4987795;28;20120;-82
2023/01/13 00:56:08;;;;;;;29.45;5.43;;;8.30;99.90;;;;;;4968906;28;20038;-83
2023/01/13 00:58:34;;;;;;;29.98;6.85;;;8.30;99.90;;;;;;5011287;28;20045;-83
2023/01/13 01:01:06;;;;;;;33.53;7.03;;;8.30;99.90;;;;;;4993621;28;20498;-83
2023/01/13 01:03:32;;;;;;;28.48;6.80;;;8.30;99.90;;;;;;5005752;28;20088;-83
2023/01/13 01:06:08;;;;;;;27.70;5.53;;;8.30;99.90;;;;;;4985901;28;20494;-82
2023/01/13 01:08:34;;;;;;;28.58;5.82;;;8.20;99.90;;;;;;4991785;28;20147;-83
2023/01/13 01:11:05;;;;;;;30.73;6.50;;;8.20;99.90;;;;;;4977057;28;20437;-83
2023/01/13 01:13:31;;;;;;;31.38;5.72;;;8.10;99.90;;;;;;4973741;28;20038;-83
2023/01/13 01:15:57;;;;;;;35.42;6.03;;;8.10;99.90;;;;;;4983956;28;20130;-83
2023/01/13 01:18:23;;;;;;;29.60;5.88;;;8.10;99.90;;;;;;4992292;28;20038;-83
2023/01/13 01:20:48;;;;;;;26.50;6.07;;;8.00;99.90;;;;;;4968768;28;20045;-83
2023/01/13 01:23:14;;;;;;;23.55;5.10;;;8.00;99.90;;;;;;5013007;28;20042;-83
2023/01/13 01:25:40;;;;;;;38.10;6.72;;;8.00;99.90;;;;;;4972368;28;20635;-83
2023/01/13 01:28:05;;;;;;;32.25;6.38;;;8.00;99.90;;;;;;4975475;28;20046;-83
2023/01/13 01:30:31;;;;;;;40.72;7.60;;;8.00;99.90;;;;;;4970413;28;20050;-82
2023/01/13 01:32:57;;;;;;;35.75;5.90;;;8.00;99.90;;;;;;4966614;28;20452;-83
2023/01/13 01:35:23;;;;;;;30.30;7.00;;;8.10;99.90;;;;;;4975298;28;20050;-83
2023/01/13 01:37:49;;;;;;;29.10;5.43;;;8.10;99.90;;;;;;4996257;28;20046;-83
2023/01/13 01:40:15;;;;;;;30.98;6.25;;;8.00;99.90;;;;;;4999963;28;20086;-83
2023/01/13 01:45:29;;;;;;;30.75;6.05;;;8.00;99.90;;;;;;4987203;28;20042;-83
2023/01/13 01:48:01;;;;;;;30.83;6.50;;;8.10;99.90;;;;;;5027001;28;20077;-83
2023/01/13 01:50:28;;;;;;;29.83;5.30;;;8.10;99.90;;;;;;4994421;28;20042;-83
2023/01/13 01:53:01;;;;;;;38.15;7.05;;;8.10;99.90;;;;;;5018120;28;20052;-83
2023/01/13 01:55:30;;;;;;;33.75;5.72;;;8.00;99.90;;;;;;4989782;28;20039;-83
2023/01/13 01:58:14;;;;;;;31.83;6.00;;;8.00;99.90;;;;;;4989898;28;20045;-83
2023/01/13 02:00:40;;;;;;;31.55;6.80;;;8.00;99.90;;;;;;5019259;28;20047;-82
2023/01/13 02:03:07;;;;;;;32.25;6.18;;;8.00;99.90;;;;;;4984277;28;20036;-83
2023/01/13 02:05:33;;;;;;;28.17;5.45;;;8.10;99.90;;;;;;4977003;28;20121;-83
2023/01/13 02:08:00;;;;;;;29.95;5.25;;;8.10;99.90;;;;;;4989612;28;20555;-82
2023/01/13 02:10:28;;;;;;;30.92;6.32;;;8.10;99.90;;;;;;5005682;28;20061;-83
2023/01/13 02:12:57;;;;;;;30.42;6.07;;;8.20;99.90;;;;;;4987877;28;20133;-83
2023/01/13 02:15:36;;;;;;;30.65;5.50;;;8.20;99.90;;;;;;4970666;28;20069;-83
2023/01/13 02:18:15;;;;;;;31.05;5.03;;;8.20;99.90;;;;;;4979212;28;20126;-83
2023/01/13 02:21:11;;;;;;;25.33;6.13;;;8.20;99.90;;;;;;5039961;28;20411;-83
2023/01/13 02:27:05;;;;;;;37.75;6.57;;;8.30;99.90;;;;;;5001008;28;20066;-83
2023/01/13 02:33:15;;;;;;;32.83;5.70;;;8.20;99.90;;;;;;4986327;28;20254;-83
2023/01/13 02:36:04;;;;;;;33.13;5.78;;;8.20;99.90;;;;;;4991946;28;20036;-83
2023/01/13 02:38:36;;;;;;;28.00;5.35;;;8.20;99.90;;;;;;4981721;28;20046;-83
2023/01/13 02:44:07;;;;;;;27.40;5.15;;;8.20;99.90;;;;;;4985173;28;20104;-83
2023/01/13 02:46:47;;;;;;;30.42;5.68;;;8.20;99.90;;;;;;4966475;28;20154;-83
2023/01/13 02:49:22;;;;;;;26.27;4.63;;;8.30;99.90;;;;;;4981752;28;20046;-84
2023/01/13 02:51:49;;;;;;;28.67;5.97;;;8.30;99.90;;;;;;4971231;28;20538;-84
2023/01/13 02:54:20;;;;;;;33.15;7.13;;;8.30;99.90;;;;;;4966464;28;20126;-83
2023/01/13 02:56:48;;;;;;;23.45;5.05;;;8.40;99.90;;;;;;5007971;28;20046;-83
2023/01/13 02:59:14;;;;;;;26.40;5.63;;;8.40;99.90;;;;;;5032175;28;20123;-82
2023/01/13 03:01:41;;;;;;;30.10;5.32;;;8.50;99.90;;;;;;4982183;28;20832;-83
2023/01/13 03:04:34;;;;;;;25.08;5.38;;;8.50;99.90;;;;;;5013666;28;20038;-83
2023/01/13 03:07:16;;;;;;;34.90;6.18;;;8.50;99.90;;;;;;4972407;28;20042;-83
2023/01/13 03:09:53;;;;;;;32.58;5.15;;;8.50;99.90;;;;;;5010434;28;20041;-83
2023/01/13 03:12:47;;;;;;;30.13;6.40;;;8.50;99.90;;;;;;4971243;28;20038;-83
2023/01/13 03:15:13;;;;;;;29.27;6.10;;;8.50;99.90;;;;;;4979443;28;20046;-83
2023/01/13 03:17:53;;;;;;;26.60;5.10;;;8.40;99.90;;;;;;5012259;28;20049;-83
2023/01/13 03:20:26;;;;;;;28.85;5.72;;;8.40;99.90;;;;;;4981729;28;20394;-83
2023/01/13 03:23:08;;;;;;;30.30;5.63;;;8.30;99.90;;;;;;4997186;28;20087;-83
2023/01/13 03:25:40;;;;;;;23.52;4.80;;;8.30;99.90;;;;;;5012782;28;20035;-83
2023/01/13 03:28:10;;;;;;;33.33;5.78;;;8.30;99.90;;;;;;5041589;27;20094;-83
2023/01/13 03:30:43;;;;;;;22.25;4.53;;;8.20;99.90;;;;;;4979421;28;20067;-83
2023/01/13 03:33:22;;;;;;;23.63;5.13;;;8.30;99.90;;;;;;5011973;28;20403;-82
2023/01/13 03:35:52;;;;;;;24.67;5.57;;;8.30;99.90;;;;;;5022051;28;20042;-83
2023/01/13 03:38:32;;;;;;;24.98;4.88;;;8.50;99.90;;;;;;5018704;28;20034;-83
2023/01/13 03:41:03;;;;;;;30.63;4.97;;;8.50;99.90;;;;;;5064239;27;20056;-83
2023/01/13 03:47:06;;;;;;;30.20;4.97;;;8.50;99.90;;;;;;4994421;28;20486;-83
2023/01/13 03:49:35;;;;;;;32.22;5.32;;;8.50;99.90;;;;;;4990105;28;20042;-83
2023/01/13 03:52:04;;;;;;;25.25;4.60;;;8.60;99.90;;;;;;4997721;28;20062;-83
2023/01/13 03:54:35;;;;;;;21.77;4.72;;;8.60;99.90;;;;;;4997197;28;20125;-83
2023/01/13 03:57:05;;;;;;;27.63;6.65;;;8.60;99.90;;;;;;4979554;28;20414;-83
2023/01/13 03:59:38;;;;;;;26.67;5.65;;;8.50;99.90;;;;;;4988979;28;20698;-83
2023/01/13 04:02:18;;;;;;;23.27;5.35;;;8.60;99.90;;;;;;4986248;28;20444;-83
2023/01/13 04:04:49;;;;;;;25.63;5.03;;;8.50;99.90;;;;;;5000738;28;20411;-83
2023/01/13 04:07:34;;;;;;;27.48;5.40;;;8.50;99.90;;;;;;5014972;28;20047;-83
2023/01/13 04:10:04;;;;;;;23.65;4.85;;;8.50;99.90;;;;;;5019735;27;20049;-83
2023/01/13 04:15:22;;;;;;;22.92;5.40;;;8.40;99.90;;;;;;4988021;28;20077;-83
2023/01/13 04:17:49;;;;;;;30.27;6.13;;;8.40;99.90;;;;;;4997879;28;20034;-83
2023/01/13 04:20:15;;;;;;;26.42;5.55;;;8.40;99.90;;;;;;5024526;28;20041;-83
2023/01/13 04:22:41;;;;;;;28.20;5.38;;;8.30;99.90;;;;;;4984297;28;20046;-82
2023/01/13 04:25:08;;;;;;;33.35;6.10;;;8.20;99.90;;;;;;4986733;28;20460;-83
2023/01/13 04:27:33;;;;;;;22.63;4.53;;;8.20;99.90;;;;;;4972979;28;20050;-83
2023/01/13 04:29:59;;;;;;;31.20;5.50;;;8.30;99.90;;;;;;4975701;28;20406;-83
2023/01/13 04:32:25;;;;;;;30.05;5.88;;;8.30;99.90;;;;;;4981154;28;20035;-83
2023/01/13 04:34:50;;;;;;;32.35;5.80;;;8.30;99.90;;;;;;4991126;28;20035;-83
2023/01/13 04:37:16;;;;;;;28.73;5.70;;;8.30;99.90;;;;;;4980958;28;20398;-83
2023/01/13 04:39:41;;;;;;;25.35;5.25;;;8.30;99.90;;;;;;4987946;28;20047;-83
2023/01/13 04:42:07;;;;;;;29.13;5.20;;;8.40;99.90;;;;;;4966827;28;20050;-83
2023/01/13 04:44:34;;;;;;;27.50;5.40;;;8.50;99.90;;;;;;4966714;28;20123;-83
2023/01/13 04:47:03;;;;;;;29.75;5.20;;;8.50;99.90;;;;;;4978832;28;20038;-83
2023/01/13 04:49:28;;;;;;;27.73;5.53;;;8.60;99.90;;;;;;4985355;28;20443;-83
2023/01/13 04:51:54;;;;;;;25.85;5.63;;;8.50;99.90;;;;;;4972176;28;20041;-83
2023/01/13 04:54:20;;;;;;;28.55;5.07;;;8.60;99.90;;;;;;5002217;28;20091;-83
2023/01/13 04:56:45;;;;;;;23.55;4.78;;;8.60;99.90;;;;;;4986969;28;20046;-83
2023/01/13 04:59:12;;;;;;;24.05;5.10;;;8.60;99.90;;;;;;4970529;28;20045;-83
2023/01/13 05:01:38;;;;;;;26.85;5.88;;;8.60;99.90;;;;;;5016856;28;20044;-83
2023/01/13 05:04:04;;;;;;;22.92;4.65;;;8.70;99.90;;;;;;4998187;28;20030;-83
2023/01/13 05:06:30;;;;;;;22.55;4.90;;;8.70;99.90;;;;;;4988383;28;20630;-83
2023/01/13 05:08:56;;;;;;;30.25;5.63;;;8.70;99.90;;;;;;4995143;28;20452;-83
2023/01/13 05:16:59;;;;;;;23.23;4.82;;;8.70;99.90;;;;;;5037444;27;20293;-83
2023/01/13 05:19:25;;;;;;;;;;;8.80;99.90;;;;;;4972274;28;20034;-84
2023/01/13 05:27:19;;;;;;;20.92;4.57;;;8.80;99.90;;;;;;4996134;28;20127;-82
2023/01/13 05:29:45;;;;;;;23.63;5.43;;;8.80;99.90;;;;;;5000610;28;20133;-83
2023/01/13 05:32:10;;;;;;;22.27;4.80;;;8.90;99.90;;;;;;5001360;28;20034;-83
2023/01/13 05:34:36;;;;;;;25.30;4.35;;;8.90;99.90;;;;;;4970060;28;20038;-83
2023/01/13 05:37:02;;;;;;;19.25;4.50;;;8.90;99.90;;;;;;4989084;28;20091;-83
2023/01/13 05:43:18;;;;;;;22.75;5.05;;;8.90;99.90;;;;;;5005950;28;20148;-83
2023/01/13 05:44:57;;;;;;;19.10;4.38;;;8.90;99.90;;;;;;5044038;27;20129;-83
2023/01/13 05:47:23;;;;;;;16.80;3.78;;;9.00;99.90;;;;;;4969323;28;20530;-83
2023/01/13 05:49:48;;;;;;;19.02;4.35;;;9.00;99.90;;;;;;4989039;28;20098;-84
2023/01/13 05:52:14;;;;;;;25.45;5.68;;;9.00;99.90;;;;;;4983990;28;20038;-83
2023/01/13 05:54:40;;;;;;;18.35;4.53;;;9.00;99.90;;;;;;4967994;28;20066;-83
2023/01/13 05:57:05;;;;;;;26.15;4.90;;;9.00;99.90;;;;;;4999084;28;20109;-83
2023/01/13 05:59:31;;;;;;;22.48;4.90;;;9.00;99.90;;;;;;4967323;28;20108;-84
2023/01/13 06:01:57;;;;;;;20.50;4.30;;;9.00;99.90;;;;;;4987050;28;20509;-82
2023/01/13 06:04:22;;;;;;;21.63;4.30;;;9.00;99.90;;;;;;4966969;28;20117;-83
2023/01/13 06:06:48;;;;;;;16.05;4.43;;;8.90;99.90;;;;;;4969362;28;20379;-82
2023/01/13 06:09:14;;;;;;;22.05;4.70;;;9.00;99.90;;;;;;4980384;28;20046;-83
2023/01/13 06:11:39;;;;;;;25.60;5.85;;;8.90;99.90;;;;;;4998587;28;20047;-83
2023/01/13 06:14:05;;;;;;;19.92;4.55;;;8.90;99.90;;;;;;4988119;28;20046;-83
2023/01/13 06:16:31;;;;;;;22.45;3.70;;;8.90;99.90;;;;;;4968090;28;20061;-83
2023/01/13 06:18:56;;;;;;;23.33;4.63;;;8.90;99.90;;;;;;4998122;28;20153;-83
2023/01/13 06:21:22;;;;;;;21.02;4.07;;;8.80;99.90;;;;;;4966220;28;20498;-83
2023/01/13 06:23:47;;;;;;;18.73;4.43;;;8.80;99.90;;;;;;4968963;28;20118;-83
2023/01/13 06:26:22;;;;;;;19.92;4.32;;;8.90;99.90;;;;;;4979399;28;20045;-83
2023/01/13 06:28:49;;;;;;;25.45;5.00;;;8.90;99.90;;;;;;4966409;28;20042;-83
2023/01/13 06:31:15;;;;;;;18.55;4.22;;;8.80;99.90;;;;;;4989517;28;20126;-83
2023/01/13 06:33:53;;;;;;;22.05;4.45;;;8.80;99.90;;;;;;5029015;27;20480;-83
2023/01/13 06:36:28;;;;;;;28.50;5.32;;;8.80;99.90;;;;;;5005603;28;20039;-83
2023/01/13 06:38:57;;;;;;;23.05;4.57;;;8.80;99.90;;;;;;5001018;28;20107;-83
2023/01/13 06:43:13;;;;;;;20.67;5.03;;;8.80;99.90;;;;;;4991124;28;20446;-83
2023/01/13 06:44:08;;;;;;;16.77;3.83;;;8.70;99.90;;;;;;4995382;28;20051;-82
2023/01/13 06:46:34;;;;;;;24.48;4.72;;;8.60;99.90;;;;;;4981312;28;20039;-83
2023/01/13 06:49:00;;;;;;;16.98;4.75;;;8.50;99.90;;;;;;4969947;28;20125;-83
2023/01/13 06:51:25;;;;;;;24.95;5.05;;;8.50;99.90;;;;;;4971643;28;20820;-83
2023/01/13 06:53:51;;;;;;;23.30;3.92;;;8.40;99.90;;;;;;4986330;28;20034;-83
2023/01/13 06:56:16;;;;;;;23.65;4.60;;;8.30;99.90;;;;;;4967266;28;20477;-83
2023/01/13 06:58:42;;;;;;;19.65;3.90;;;8.30;99.90;;;;;;4969924;28;20042;-83
2023/01/13 07:01:07;;;;;;;24.77;3.72;;;8.30;99.90;;;;;;5022172;28;20060;-83
2023/01/13 07:03:33;;;;;;;17.48;3.88;;;8.20;99.90;;;;;;4970185;28;20030;-83
2023/01/13 07:06:00;;;;;;;21.85;4.57;;;8.10;99.90;;;;;;4966353;28;20033;-83
2023/01/13 07:08:26;;;;;;;26.98;4.65;;;8.10;99.90;;;;;;4969363;28;20046;-83
2023/01/13 07:10:53;;;;;;;20.98;4.38;;;8.00;99.90;;;;;;4984318;28;20030;-83
2023/01/13 07:16:04;;;;;;;;;;;7.90;99.90;;;;;;4982776;28;20050;-84
2023/01/13 07:18:31;;;;;;;17.13;3.83;;;7.90;99.90;;;;;;5038446;28;20029;-83
2023/01/13 07:21:05;;;;;;;17.85;4.43;;;7.80;99.90;;;;;;4981922;28;20034;-83
2023/01/13 07:23:35;;;;;;;25.60;4.93;;;7.70;99.90;;;;;;4994496;28;20038;-83
2023/01/13 07:26:01;;;;;;;19.80;4.35;;;7.70;99.90;;;;;;4970438;28;20465;-83
2023/01/13 07:28:28;;;;;;;22.17;4.82;;;7.60;99.90;;;;;;5005806;28;20066;-83
2023/01/13 07:30:53;;;;;;;19.77;4.50;;;7.70;99.90;;;;;;5009144;28;20040;-84
2023/01/13 07:33:19;;;;;;;16.52;3.55;;;7.60;99.90;;;;;;4966959;28;20053;-83
2023/01/13 07:35:46;;;;;;;23.77;5.05;;;7.60;99.90;;;;;;4994076;28;20436;-83
2023/01/13 07:38:11;;;;;;;19.60;4.60;;;7.60;99.90;;;;;;4993850;28;20044;-83
2023/01/13 07:40:39;;;;;;;26.55;5.20;;;7.60;99.90;;;;;;5007518;28;20069;-83
2023/01/13 07:45:48;;;;;;;26.55;4.05;;;7.50;99.90;;;;;;4998378;28;20050;-83
2023/01/13 07:48:14;;;;;;;24.88;4.03;;;7.40;99.90;;;;;;5026020;28;20034;-83
2023/01/13 07:50:40;;;;;;;19.27;3.60;;;7.40;99.90;;;;;;5017350;28;20081;-84
2023/01/13 07:53:05;;;;;;;25.15;4.60;;;7.40;99.90;;;;;;5000709;28;20565;-83
2023/01/13 07:55:31;;;;;;;23.73;5.70;;;7.40;99.90;;;;;;4985476;28;20043;-83
2023/01/13 07:57:56;;;;;;;18.50;4.25;;;7.50;99.90;;;;;;4968751;28;20049;-84
2023/01/13 08:00:22;;;;;;;25.85;5.07;;;7.50;99.90;;;;;;4966598;28;20043;-83
2023/01/13 08:02:48;;;;;;;24.25;4.93;;;7.60;99.90;;;;;;4985776;28;20067;-84
2023/01/13 08:05:14;;;;;;;21.13;4.10;;;7.60;99.90;;;;;;4984638;28;20038;-83
2023/01/13 08:07:39;;;;;;;22.45;4.57;;;7.70;99.90;;;;;;4986920;28;20056;-83
2023/01/13 08:10:05;;;;;;;20.85;4.80;;;7.70;99.90;;;;;;4966167;28;20083;-84
2023/01/13 08:15:15;;;;;;;19.85;4.53;;;7.70;99.90;;;;;;4986257;28;20576;-83
2023/01/13 08:17:41;;;;;;;21.83;4.30;;;7.80;99.90;;;;;;4984403;28;20039;-84
2023/01/13 08:20:07;;;;;;;21.08;4.53;;;7.80;99.90;;;;;;4985938;28;20042;-83
2023/01/13 08:22:33;;;;;;;18.88;4.18;;;7.90;99.90;;;;;;4969922;28;20223;-83
2023/01/13 08:24:59;;;;;;;21.40;5.15;;;7.90;99.90;;;;;;4980369;28;20137;-84
2023/01/13 08:27:25;;;;;;;21.73;4.80;;;8.00;99.90;;;;;;4984933;28;20042;-83
2023/01/13 08:29:50;;;;;;;19.45;4.32;;;8.00;99.90;;;;;;4972633;28;20034;-83
2023/01/13 08:32:16;;;;;;;26.10;4.50;;;8.00;99.90;;;;;;4967592;28;20092;-83
2023/01/13 08:34:41;;;;;;;25.58;5.93;;;8.00;99.90;;;;;;4993939;28;20053;-83
2023/01/13 08:37:07;;;;;;;26.33;4.72;;;8.00;99.90;;;;;;4971732;28;20038;-83
2023/01/13 08:39:34;;;;;;;24.75;4.07;;;8.10;99.90;;;;;;4986643;28;20042;-83
2023/01/13 08:42:01;;;;;;;20.60;4.45;;;8.10;99.90;;;;;;5009976;28;20523;-83
2023/01/13 08:44:29;;;;;;;21.58;4.28;;;8.10;99.90;;;;;;4999463;28;20050;-83
2023/01/13 08:46:56;;;;;;;29.30;4.97;;;8.20;99.90;;;;;;4971316;28;20045;-83
2023/01/13 08:49:23;;;;;;;19.75;4.78;;;8.20;99.90;;;;;;4971553;28;20057;-83
2023/01/13 08:51:49;;;;;;;26.73;4.80;;;8.20;99.90;;;;;;4988876;28;20497;-83
2023/01/13 08:54:16;;;;;;;23.92;5.05;;;8.30;99.90;;;;;;4997344;28;20766;-83
2023/01/13 08:56:43;;;;;;;23.48;4.82;;;8.30;99.90;;;;;;5004507;28;20504;-83
2023/01/13 08:59:15;;;;;;;20.50;4.90;;;8.30;99.90;;;;;;4968188;28;20142;-84
2023/01/13 09:01:42;;;;;;;17.55;4.03;;;8.30;99.90;;;;;;5019223;28;20101;-83
2023/01/13 09:04:18;;;;;;;22.52;4.20;;;8.30;99.90;;;;;;5001314;28;20054;-83
2023/01/13 09:06:44;;;;;;;19.20;4.60;;;8.30;99.90;;;;;;4983153;28;20085;-84
2023/01/13 09:09:10;;;;;;;21.20;3.85;;;8.20;99.90;;;;;;4966068;28;20049;-83
2023/01/13 09:14:26;;;;;;;29.17;4.25;;;8.10;99.90;;;;;;4983312;28;20046;-83
2023/01/13 09:16:51;;;;;;;24.27;4.60;;;8.00;99.90;;;;;;4964160;28;20038;-83
2023/01/13 09:19:17;;;;;;;16.90;3.65;;;7.90;99.90;;;;;;4957589;28;20038;-83
2023/01/13 09:21:43;;;;;;;17.17;3.38;;;7.90;99.90;;;;;;4964232;28;20074;-83
2023/01/13 09:24:08;;;;;;;21.08;3.80;;;7.80;99.90;;;;;;4983538;28;20049;-83
2023/01/13 09:26:35;;;;;;;17.38;3.72;;;7.80;99.90;;;;;;4965977;28;20046;-83
2023/01/13 09:29:01;;;;;;;19.50;4.13;;;7.70;99.90;;;;;;4969877;28;20034;-83
2023/01/13 09:31:27;;;;;;;26.38;4.20;;;7.70;99.90;;;;;;4956727;28;20038;-83
2023/01/13 09:36:37;;;;;;;24.40;4.03;;;7.70;99.90;;;;;;4972165;28;20050;-83
2023/01/13 09:39:03;;;;;;;20.55;4.45;;;7.60;99.90;;;;;;4995842;28;20053;-83
2023/01/13 09:44:51;;;;;;;27.55;5.55;;;7.70;99.90;;;;;;5010895;27;20047;-83
2023/01/13 09:47:31;;;;;;;30.55;4.65;;;7.70;99.90;;;;;;4985465;28;20051;-82
2023/01/13 09:50:12;;;;;;;23.00;3.80;;;7.60;99.90;;;;;;4989659;28;20045;-83
2023/01/13 09:52:38;;;;;;;23.10;4.85;;;7.60;99.90;;;;;;4976745;28;20050;-83
2023/01/13 09:55:16;;;;;;;23.73;4.03;;;7.60;99.90;;;;;;4968566;28;20042;-83
2023/01/13 09:57:41;;;;;;;28.95;4.32;;;7.60;99.90;;;;;;4960840;28;20041;-83
2023/01/13 10:00:15;;;;;;;23.52;4.82;;;7.70;99.90;;;;;;4962912;28;20038;-83
2023/01/13 10:03:12;;;;;;;17.50;4.30;;;7.60;99.90;;;;;;4994769;28;20066;-83
2023/01/13 10:05:41;;;;;;;16.88;4.45;;;7.70;99.90;;;;;;4984262;28;20068;-84
2023/01/13 10:08:16;;;;;;;22.40;3.70;;;7.60;99.90;;;;;;4977867;28;20042;-83
2023/01/13 10:10:48;;;;;;;21.98;4.20;;;7.60;99.90;;;;;;4979583;28;20043;-83
2023/01/13 10:13:22;;;;;;;22.35;4.43;;;7.60;99.90;;;;;;4983329;28;20042;-84
2023/01/13 10:16:10;;;;;;;18.45;4.13;;;7.60;99.90;;;;;;4958597;28;20049;-84
2023/01/13 10:18:44;;;;;;;16.27;3.88;;;7.60;99.90;;;;;;4976805;28;20076;-84
2023/01/13 10:21:48;;;;;;;21.90;3.90;;;7.70;99.90;;;;;;4993051;28;20413;-84
2023/01/13 10:24:32;;;;;;;17.38;3.47;;;7.80;99.90;;;;;;5004141;28;20057;-84
2023/01/13 10:27:11;;;;;;;22.88;3.90;;;7.80;99.90;;;;;;4976817;28;20044;-84
2023/01/13 10:29:37;;;;;;;17.85;4.25;;;7.80;99.90;;;;;;5000759;28;20040;-84
2023/01/13 10:32:02;;;;;;;27.58;4.40;;;7.90;99.90;;;;;;4965163;28;20383;-84
2023/01/13 10:34:28;;;;;;;17.35;4.72;;;7.90;99.90;;;;;;4997832;28;20042;-83
2023/01/13 10:37:05;;;;;;;25.65;4.53;;;7.80;99.90;;;;;;4974631;28;20049;-84
2023/01/13 10:39:40;;;;;;;24.52;4.15;;;7.90;99.90;;;;;;4986535;28;20466;-84
2023/01/13 10:42:09;;;;;;;;;;;7.90;99.90;;;;;;4955763;28;20089;-84
2023/01/13 10:44:54;;;;;;;23.33;4.95;;;8.00;99.90;;;;;;4973983;28;19930;-84
2023/01/13 10:47:26;;;;;;;;;;;8.00;99.90;;;;;;4958403;28;20064;-84
2023/01/13 10:49:58;;;;;;;22.27;4.38;;;8.10;99.90;;;;;;5009589;28;19926;-83
2023/01/13 10:52:30;;;;;;;16.10;3.60;;;8.10;99.90;;;;;;5016754;28;21287;-84
2023/01/13 10:54:56;;;;;;;20.13;4.70;;;8.00;99.90;;;;;;4976878;28;20038;-84
2023/01/13 10:57:26;;;;;;;19.05;3.65;;;8.10;99.90;;;;;;4964818;28;20517;-84
2023/01/13 10:59:53;;;;;;;23.15;4.28;;;8.10;99.90;;;;;;5003451;28;20050;-84
2023/01/13 11:02:28;;;;;;;17.92;3.42;;;8.00;99.90;;;;;;4960121;28;20077;-83
2023/01/13 11:04:56;;;;;;;21.80;4.22;;;8.10;99.90;;;;;;5019227;28;20407;-84
2023/01/13 11:07:48;;;;;;;26.58;5.57;;;8.10;99.90;;;;;;4998703;28;20400;-84
2023/01/13 11:10:22;;;;;;;20.00;3.47;;;8.10;99.90;;;;;;5033417;28;20038;-84
2023/01/13 11:12:56;;;;;;;15.20;3.78;;;8.20;99.90;;;;;;4981065;28;20031;-84
2023/01/13 11:15:23;;;;;;;;;;;8.20;99.90;;;;;;4995673;28;20031;-84
2023/01/13 11:18:00;;;;;;;20.92;3.92;;;8.20;99.90;;;;;;4991682;28;19924;-83
2023/01/13 11:20:40;;;;;;;13.73;3.40;;;8.20;99.90;;;;;;4966905;28;20034;-84
2023/01/13 11:23:12;;;;;;;16.15;3.75;;;8.30;99.90;;;;;;4996618;28;20042;-84
2023/01/13 11:25:45;;;;;;;23.33;4.80;;;8.30;99.90;;;;;;4991994;28;20126;-84
2023/01/13 11:28:29;;;;;;;20.33;3.80;;;8.30;99.90;;;;;;4982315;28;20051;-84
2023/01/13 11:31:09;;;;;;;13.98;3.67;;;8.40;99.90;;;;;;4966016;28;20046;-84
2023/01/13 11:33:41;;;;;;;18.92;3.45;;;8.40;99.90;;;;;;4973239;28;20046;-84
2023/01/13 11:36:17;;;;;;;14.60;3.90;;;8.50;99.90;;;;;;4988842;28;20071;-84
2023/01/13 11:38:55;;;;;;;16.23;3.50;;;8.50;99.90;;;;;;5001686;28;20057;-83
2023/01/13 11:41:40;;;;;;;18.55;3.88;;;8.50;99.90;;;;;;4987351;28;20590;-84
2023/01/13 11:44:08;;;;;;;12.75;3.83;;;8.60;99.90;;;;;;4985493;28;20594;-83
2023/01/13 11:46:35;;;;;;;18.13;4.47;;;8.70;99.90;;;;;;5030681;28;20044;-84
2023/01/13 11:49:01;;;;;;;12.35;3.67;;;8.80;99.90;;;;;;4984439;28;20043;-83
2023/01/13 11:51:42;;;;;;;14.07;3.35;;;8.80;99.90;;;;;;4980413;28;20040;-83
2023/01/13 11:54:32;;;;;;;14.40;3.83;;;8.90;99.90;;;;;;4994406;28;20129;-84
2023/01/13 11:57:22;;;;;;;13.02;3.28;;;8.90;99.90;;;;;;4969912;28;20046;-83
2023/01/13 12:00:00;;;;;;;13.98;3.33;;;8.80;99.90;;;;;;4993409;28;20053;-83
2023/01/13 12:02:46;;;;;;;16.35;3.30;;;8.80;99.90;;;;;;4979215;28;20460;-84
2023/01/13 12:05:49;;;;;;;13.95;3.05;;;8.80;99.90;;;;;;4969472;28;20103;-84
2023/01/13 12:08:21;;;;;;;15.75;3.40;;;8.70;99.90;;;;;;4960535;28;20089;-84
2023/01/13 12:11:13;;;;;;;15.07;3.40;;;8.70;99.90;;;;;;5014561;28;20046;-84
2023/01/13 12:13:48;;;;;;;16.10;3.95;;;8.70;99.90;;;;;;4970033;28;20046;-83
2023/01/13 12:16:22;;;;;;;13.45;3.28;;;8.70;99.90;;;;;;5013796;28;20466;-83
2023/01/13 12:19:26;;;;;;;18.33;3.80;;;8.80;99.90;;;;;;4968256;28;20046;-85
2023/01/13 12:22:07;;;;;;;8.00;2.60;;;8.90;99.90;;;;;;4980912;28;20418;-84
2023/01/13 12:24:57;;;;;;;15.63;2.88;;;9.00;99.90;;;;;;4997807;28;20046;-84
2023/01/13 12:27:50;;;;;;;15.27;3.75;;;9.00;99.90;;;;;;5002087;28;20043;-84
2023/01/13 12:30:58;;;;;;;12.40;3.45;;;9.10;99.90;;;;;;5007603;28;20056;-84
2023/01/13 12:33:41;;;;;;;17.88;3.72;;;9.10;99.90;;;;;;5009190;28;20033;-83
2023/01/13 12:36:41;;;;;;;14.23;3.35;;;9.10;99.90;;;;;;5026563;28;20041;-84
2023/01/13 12:39:22;;;;;;;15.45;3.42;;;9.10;99.90;;;;;;4972091;28;20402;-83
2023/01/13 12:45:07;;;;;;;14.10;3.40;;;9.20;99.90;;;;;;4995331;28;20050;-84
2023/01/13 12:47:44;;;;;;;11.90;3.40;;;9.20;99.90;;;;;;4966939;28;20789;-84
2023/01/13 12:50:24;;;;;;;16.20;3.50;;;9.30;99.90;;;;;;4981993;28;20035;-83
2023/01/13 12:52:58;;;;;;;15.88;3.50;;;9.30;99.90;;;;;;4975557;28;20187;-83
2023/01/13 12:55:24;;;;;;;16.17;3.60;;;9.30;99.90;;;;;;4993406;28;20512;-83
2023/01/13 12:58:05;;;;;;;14.38;3.42;;;9.30;99.90;;;;;;4976566;28;20650;-84
2023/01/13 13:00:38;;;;;;;13.57;3.33;;;9.30;99.90;;;;;;5009160;28;20042;-83
2023/01/13 13:03:09;;;;;;;11.73;3.20;;;9.20;99.90;;;;;;4977578;28;20039;-84
2023/01/13 13:05:50;;;;;;;10.75;3.10;;;9.20;99.90;;;;;;4982103;28;20489;-84
2023/01/13 13:08:38;;;;;;;14.40;3.33;;;9.20;99.90;;;;;;4984555;28;20088;-83
2023/01/13 13:13:59;;;;;;;13.13;2.95;;;9.20;99.90;;;;;;5032770;27;20129;-83
2023/01/13 13:16:24;;;;;;;13.65;3.28;;;9.20;99.90;;;;;;4978862;28;20046;-83
2023/01/13 13:19:11;;;;;;;13.48;3.25;;;9.20;99.90;;;;;;5011264;28;20049;-83
2023/01/13 13:22:10;;;;;;;11.40;2.83;;;9.30;99.90;;;;;;4986635;28;20051;-83
2023/01/13 13:24:40;;;;;;;11.00;2.95;;;9.20;99.90;;;;;;4982399;28;20100;-83
2023/01/13 13:27:26;;;;;;;14.75;2.95;;;9.30;99.90;;;;;;5022674;28;20046;-83
2023/01/13 13:29:56;;;;;;;12.52;3.13;;;9.30;99.90;;;;;;4991757;28;20437;-83
2023/01/13 13:32:43;;;;;;;11.30;2.90;;;9.30;99.90;;;;;;4967390;28;20549;-83
2023/01/13 13:35:39;;;;;;;11.88;2.97;;;9.30;99.90;;;;;;5024571;28;20097;-83
2023/01/13 13:47:13;;;;;;;10.77;3.28;;;9.30;99.90;;;;;;5016081;28;20049;-82
2023/01/13 13:49:47;;;;;;;12.77;2.85;;;9.30;99.90;;;;;;4975697;28;20482;-83
2023/01/13 13:52:36;;;;;;;13.98;3.53;;;9.30;99.90;;;;;;5017279;28;20038;-83
2023/01/13 13:55:27;;;;;;;14.05;3.47;;;9.30;99.90;;;;;;5015336;28;20053;-83
2023/01/13 13:57:56;;;;;;;14.60;2.92;;;9.30;99.90;;;;;;4981860;28;20070;-83
2023/01/13 14:00:32;;;;;;;13.10;3.95;;;9.30;99.90;;;;;;5018557;28;20346;-83
2023/01/13 14:03:04;;;;;;;9.18;2.95;;;9.30;99.90;;;;;;4977800;28;20508;-83
2023/01/13 14:05:32;;;;;;;11.57;2.83;;;9.30;99.90;;;;;;4977668;28;20046;-83
2023/01/13 14:08:15;;;;;;;10.60;2.55;;;9.30;99.90;;;;;;4985260;28;20042;-83
2023/01/13 14:10:43;;;;;;;13.30;3.20;;;9.30;99.90;;;;;;5000316;28;20066;-83
2023/01/13 14:13:18;;;;;;;9.85;2.88;;;9.20;99.90;;;;;;4989038;28;20042;-83
2023/01/13 14:15:45;;;;;;;12.00;3.25;;;9.10;99.90;;;;;;4988312;28;20042;-82